sensor_id;sensor_type;location;lat;lon;timestamp;P1;durP1;ratioP1;P2;durP2;ratioP2
5622;SDS011;2833;50.432;10.706;2023-11-21T00:02:22;3.40;;;3.10;;
5622;SDS011;2833;50.432;10.706;2023-11-21T00:04:48;3.37;;;3.03;;
5622;SDS011;2833;50.432;10.706;2023-11-21T00:07:13;4.20;;;3.43;;
5622;SDS011;2833;50.432;10.706;2023-11-21T00:09:39;3.00;;;2.70;;
5622;SDS011;2833;50.432;10.706;2023-11-21T00:12:04;4.43;;;3.10;;
5622;SDS011;2833;50.432;10.706;2023-11-21T00:14:30;2.93;;;2.73;;
5622;SDS011;2833;50.432;10.706;2023-11-21T00:16:56;4.50;;;3.00;;
5622;SDS011;2833;50.432;10.706;2023-11-21T00:19:21;5.15;;;3.10;;
5622;SDS011;2833;50.432;10.706;2023-11-21T00:21:46;3.47;;;3.00;;
5622;SDS011;2833;50.432;10.706;2023-11-21T00:24:11;5.50;;;3.23;;
5622;SDS011;2833;50.432;10.706;2023-11-21T00:26:38;4.20;;;3.20;;
5622;SDS011;2833;50.432;10.706;2023-11-21T00:29:04;4.17;;;2.80;;
5622;SDS011;2833;50.432;10.706;2023-11-21T00:31:32;3.20;;;2.33;;
5622;SDS011;2833;50.432;10.706;2023-11-21T00:33:58;4.00;;;3.13;;
5622;SDS011;2833;50.432;10.706;2023-11-21T00:36:23;4.13;;;3.00;;
5622;SDS011;2833;50.432;10.706;2023-11-21T00:38:48;6.27;;;3.67;;
5622;SDS011;2833;50.432;10.706;2023-11-21T00:41:14;4.63;;;3.10;;
5622;SDS011;2833;50.432;10.706;2023-11-21T00:43:39;4.07;;;3.07;;
5622;SDS011;2833;50.432;10.706;2023-11-21T00:46:05;4.20;;;2.80;;
5622;SDS011;2833;50.432;10.706;2023-11-21T00:48:32;4.00;;;2.83;;
5622;SDS011;2833;50.432;10.706;2023-11-21T00:50:57;2.97;;;2.67;;
5622;SDS011;2833;50.432;10.706;2023-11-21T00:53:22;3.00;;;2.80;;
5622;SDS011;2833;50.432;10.706;2023-11-21T00:55:47;3.17;;;2.63;;
5622;SDS011;2833;50.432;10.706;2023-11-21T00:58:13;2.93;;;2.70;;
5622;SDS011;2833;50.432;10.706;2023-11-21T01:00:38;3.63;;;2.43;;
5622;SDS011;2833;50.432;10.706;2023-11-21T01:03:04;4.03;;;3.30;;
5622;SDS011;2833;50.432;10.706;2023-11-21T01:05:29;5.30;;;3.27;;
5622;SDS011;2833;50.432;10.706;2023-11-21T01:07:55;5.07;;;3.10;;
5622;SDS011;2833;50.432;10.706;2023-11-21T01:10:20;5.70;;;3.23;;
5622;SDS011;2833;50.432;10.706;2023-11-21T01:12:45;3.10;;;2.80;;
5622;SDS011;2833;50.432;10.706;2023-11-21T01:15:10;2.83;;;2.53;;
5622;SDS011;2833;50.432;10.706;2023-11-21T01:17:37;6.30;;;2.97;;
5622;SDS011;2833;50.432;10.706;2023-11-21T01:20:03;3.43;;;2.77;;
5622;SDS011;2833;50.432;10.706;2023-11-21T01:22:31;3.50;;;3.20;;
5622;SDS011;2833;50.432;10.706;2023-11-21T01:24:56;8.23;;;2.80;;
5622;SDS011;2833;50.432;10.706;2023-11-21T01:27:22;3.03;;;2.73;;
5622;SDS011;2833;50.432;10.706;2023-11-21T01:29:48;3.40;;;3.10;;
5622;SDS011;2833;50.432;10.706;2023-11-21T01:32:13;3.00;;;2.80;;
5622;SDS011;2833;50.432;10.706;2023-11-21T01:34:38;5.20;;;3.20;;
5622;SDS011;2833;50.432;10.706;2023-11-21T01:37:04;7.10;;;3.60;;
5622;SDS011;2833;50.432;10.706;2023-11-21T01:39:30;3.20;;;2.90;;
5622;SDS011;2833;50.432;10.706;2023-11-21T01:41:56;3.37;;;3.07;;
5622;SDS011;2833;50.432;10.706;2023-11-21T01:44:23;3.57;;;3.10;;
5622;SDS011;2833;50.432;10.706;2023-11-21T01:46:49;6.07;;;3.20;;
5622;SDS011;2833;50.432;10.706;2023-11-21T01:49:14;3.90;;;3.50;;
5622;SDS011;2833;50.432;10.706;2023-11-21T01:51:41;5.20;;;3.50;;
5622;SDS011;2833;50.432;10.706;2023-11-21T01:54:06;5.10;;;3.17;;
5622;SDS011;2833;50.432;10.706;2023-11-21T01:56:32;6.17;;;3.63;;
5622;SDS011;2833;50.432;10.706;2023-11-21T01:58:57;5.77;;;3.70;;
5622;SDS011;2833;50.432;10.706;2023-11-21T02:01:22;4.03;;;3.10;;
5622;SDS011;2833;50.432;10.706;2023-11-21T02:03:48;3.70;;;3.30;;
5622;SDS011;2833;50.432;10.706;2023-11-21T02:06:13;6.07;;;4.57;;
5622;SDS011;2833;50.432;10.706;2023-11-21T02:08:38;4.93;;;3.50;;
5622;SDS011;2833;50.432;10.706;2023-11-21T02:11:04;4.77;;;3.40;;
5622;SDS011;2833;50.432;10.706;2023-11-21T02:13:30;5.67;;;3.50;;
5622;SDS011;2833;50.432;10.706;2023-11-21T02:15:56;5.30;;;2.97;;
5622;SDS011;2833;50.432;10.706;2023-11-21T02:18:21;6.23;;;2.90;;
5622;SDS011;2833;50.432;10.706;2023-11-21T02:20:47;4.30;;;3.40;;
5622;SDS011;2833;50.432;10.706;2023-11-21T02:23:12;4.60;;;3.87;;
5622;SDS011;2833;50.432;10.706;2023-11-21T02:25:37;5.70;;;3.87;;
5622;SDS011;2833;50.432;10.706;2023-11-21T02:28:03;5.30;;;3.87;;
5622;SDS011;2833;50.432;10.706;2023-11-21T02:30:29;6.00;;;3.80;;
5622;SDS011;2833;50.432;10.706;2023-11-21T02:32:55;4.23;;;3.43;;
5622;SDS011;2833;50.432;10.706;2023-11-21T02:35:24;4.57;;;3.60;;
5622;SDS011;2833;50.432;10.706;2023-11-21T02:37:51;5.13;;;3.87;;
5622;SDS011;2833;50.432;10.706;2023-11-21T02:40:16;6.10;;;3.63;;
5622;SDS011;2833;50.432;10.706;2023-11-21T02:42:46;5.40;;;4.10;;
5622;SDS011;2833;50.432;10.706;2023-11-21T02:45:12;5.17;;;3.70;;
5622;SDS011;2833;50.432;10.706;2023-11-21T02:47:38;4.93;;;3.60;;
5622;SDS011;2833;50.432;10.706;2023-11-21T02:50:03;4.70;;;3.90;;
5622;SDS011;2833;50.432;10.706;2023-11-21T02:52:28;4.10;;;3.70;;
5622;SDS011;2833;50.432;10.706;2023-11-21T02:54:53;8.90;;;4.60;;
5622;SDS011;2833;50.432;10.706;2023-11-21T02:57:19;5.50;;;4.10;;
5622;SDS011;2833;50.432;10.706;2023-11-21T02:59:44;6.10;;;3.87;;
5622;SDS011;2833;50.432;10.706;2023-11-21T03:02:09;5.97;;;4.00;;
5622;SDS011;2833;50.432;10.706;2023-11-21T03:04:35;5.10;;;3.90;;
5622;SDS011;2833;50.432;10.706;2023-11-21T03:07:00;7.03;;;3.90;;
5622;SDS011;2833;50.432;10.706;2023-11-21T03:09:25;5.97;;;4.07;;
5622;SDS011;2833;50.432;10.706;2023-11-21T03:11:51;4.30;;;3.47;;
5622;SDS011;2833;50.432;10.706;2023-11-21T03:14:17;5.77;;;4.00;;
5622;SDS011;2833;50.432;10.706;2023-11-21T03:16:42;5.23;;;3.57;;
5622;SDS011;2833;50.432;10.706;2023-11-21T03:19:09;4.40;;;3.30;;
5622;SDS011;2833;50.432;10.706;2023-11-21T03:21:34;8.90;;;3.30;;
5622;SDS011;2833;50.432;10.706;2023-11-21T03:23:59;5.73;;;3.80;;
5622;SDS011;2833;50.432;10.706;2023-11-21T03:26:25;5.33;;;3.80;;
5622;SDS011;2833;50.432;10.706;2023-11-21T03:28:50;7.13;;;4.20;;
5622;SDS011;2833;50.432;10.706;2023-11-21T03:31:18;8.53;;;3.43;;
5622;SDS011;2833;50.432;10.706;2023-11-21T03:33:44;10.67;;;3.90;;
5622;SDS011;2833;50.432;10.706;2023-11-21T03:36:10;6.50;;;3.90;;
5622;SDS011;2833;50.432;10.706;2023-11-21T03:38:36;5.40;;;4.20;;
5622;SDS011;2833;50.432;10.706;2023-11-21T03:41:01;5.87;;;3.90;;
5622;SDS011;2833;50.432;10.706;2023-11-21T03:43:27;5.80;;;4.13;;
5622;SDS011;2833;50.432;10.706;2023-11-21T03:45:52;6.70;;;4.00;;
5622;SDS011;2833;50.432;10.706;2023-11-21T03:48:17;4.83;;;3.97;;
5622;SDS011;2833;50.432;10.706;2023-11-21T03:50:42;6.30;;;4.03;;
5622;SDS011;2833;50.432;10.706;2023-11-21T03:53:07;5.53;;;4.10;;
5622;SDS011;2833;50.432;10.706;2023-11-21T03:55:33;5.70;;;4.10;;
5622;SDS011;2833;50.432;10.706;2023-11-21T03:57:58;8.27;;;4.60;;
5622;SDS011;2833;50.432;10.706;2023-11-21T04:00:24;10.43;;;5.30;;
5622;SDS011;2833;50.432;10.706;2023-11-21T04:02:49;7.53;;;5.00;;
5622;SDS011;2833;50.432;10.706;2023-11-21T04:05:16;8.60;;;5.27;;
5622;SDS011;2833;50.432;10.706;2023-11-21T04:07:42;7.20;;;4.87;;
5622;SDS011;2833;50.432;10.706;2023-11-21T04:10:07;8.73;;;4.93;;
5622;SDS011;2833;50.432;10.706;2023-11-21T04:12:34;8.10;;;4.93;;
5622;SDS011;2833;50.432;10.706;2023-11-21T04:14:59;8.20;;;5.07;;
5622;SDS011;2833;50.432;10.706;2023-11-21T04:17:24;14.40;;;5.27;;
5622;SDS011;2833;50.432;10.706;2023-11-21T04:19:49;6.87;;;4.60;;
5622;SDS011;2833;50.432;10.706;2023-11-21T04:22:14;10.40;;;5.23;;
5622;SDS011;2833;50.432;10.706;2023-11-21T04:24:40;11.23;;;5.33;;
5622;SDS011;2833;50.432;10.706;2023-11-21T04:27:05;8.33;;;5.03;;
5622;SDS011;2833;50.432;10.706;2023-11-21T04:29:30;9.10;;;4.50;;
5622;SDS011;2833;50.432;10.706;2023-11-21T04:31:55;6.83;;;4.43;;
5622;SDS011;2833;50.432;10.706;2023-11-21T04:34:21;8.40;;;5.77;;
5622;SDS011;2833;50.432;10.706;2023-11-21T04:36:46;8.70;;;4.47;;
5622;SDS011;2833;50.432;10.706;2023-11-21T04:39:11;18.27;;;9.97;;
5622;SDS011;2833;50.432;10.706;2023-11-21T04:41:37;9.30;;;5.63;;
5622;SDS011;2833;50.432;10.706;2023-11-21T04:44:04;8.53;;;4.43;;
5622;SDS011;2833;50.432;10.706;2023-11-21T04:46:29;9.63;;;5.63;;
5622;SDS011;2833;50.432;10.706;2023-11-21T04:48:55;9.03;;;5.10;;
5622;SDS011;2833;50.432;10.706;2023-11-21T04:51:20;7.40;;;4.50;;
5622;SDS011;2833;50.432;10.706;2023-11-21T04:53:45;7.27;;;4.67;;
5622;SDS011;2833;50.432;10.706;2023-11-21T04:56:10;8.90;;;5.20;;
5622;SDS011;2833;50.432;10.706;2023-11-21T04:58:35;8.43;;;5.13;;
5622;SDS011;2833;50.432;10.706;2023-11-21T05:01:01;8.27;;;5.13;;
5622;SDS011;2833;50.432;10.706;2023-11-21T05:03:26;8.80;;;4.93;;
5622;SDS011;2833;50.432;10.706;2023-11-21T05:05:52;10.40;;;5.37;;
5622;SDS011;2833;50.432;10.706;2023-11-21T05:08:17;8.93;;;4.53;;
5622;SDS011;2833;50.432;10.706;2023-11-21T05:10:42;5.83;;;4.53;;
5622;SDS011;2833;50.432;10.706;2023-11-21T05:13:08;5.70;;;4.30;;
5622;SDS011;2833;50.432;10.706;2023-11-21T05:15:36;6.50;;;4.80;;
5622;SDS011;2833;50.432;10.706;2023-11-21T05:18:01;7.60;;;5.23;;
5622;SDS011;2833;50.432;10.706;2023-11-21T05:20:26;9.47;;;4.33;;
5622;SDS011;2833;50.432;10.706;2023-11-21T05:22:52;7.90;;;5.20;;
5622;SDS011;2833;50.432;10.706;2023-11-21T05:25:17;10.93;;;5.73;;
5622;SDS011;2833;50.432;10.706;2023-11-21T05:27:46;10.70;;;4.60;;
5622;SDS011;2833;50.432;10.706;2023-11-21T05:30:11;6.30;;;4.80;;
5622;SDS011;2833;50.432;10.706;2023-11-21T05:32:37;7.70;;;5.30;;
5622;SDS011;2833;50.432;10.706;2023-11-21T05:35:03;7.90;;;5.27;;
5622;SDS011;2833;50.432;10.706;2023-11-21T05:37:28;6.40;;;5.00;;
5622;SDS011;2833;50.432;10.706;2023-11-21T05:39:53;5.97;;;4.63;;
5622;SDS011;2833;50.432;10.706;2023-11-21T05:42:21;8.57;;;5.10;;
5622;SDS011;2833;50.432;10.706;2023-11-21T05:44:47;5.90;;;4.70;;
5622;SDS011;2833;50.432;10.706;2023-11-21T05:47:12;7.33;;;5.03;;
5622;SDS011;2833;50.432;10.706;2023-11-21T05:49:38;8.83;;;5.60;;
5622;SDS011;2833;50.432;10.706;2023-11-21T05:52:04;12.20;;;7.00;;
5622;SDS011;2833;50.432;10.706;2023-11-21T05:54:30;9.97;;;6.70;;
5622;SDS011;2833;50.432;10.706;2023-11-21T05:56:55;14.27;;;7.60;;
5622;SDS011;2833;50.432;10.706;2023-11-21T05:59:20;13.47;;;7.40;;
5622;SDS011;2833;50.432;10.706;2023-11-21T06:01:46;9.20;;;6.60;;
5622;SDS011;2833;50.432;10.706;2023-11-21T06:04:11;13.10;;;7.47;;
5622;SDS011;2833;50.432;10.706;2023-11-21T06:06:37;33.30;;;22.80;;
5622;SDS011;2833;50.432;10.706;2023-11-21T06:09:03;22.97;;;15.17;;
5622;SDS011;2833;50.432;10.706;2023-11-21T06:11:30;28.83;;;19.50;;
5622;SDS011;2833;50.432;10.706;2023-11-21T06:13:56;29.53;;;18.47;;
5622;SDS011;2833;50.432;10.706;2023-11-21T06:16:21;65.43;;;36.53;;
5622;SDS011;2833;50.432;10.706;2023-11-21T06:18:46;23.23;;;12.30;;
5622;SDS011;2833;50.432;10.706;2023-11-21T06:21:12;10.63;;;7.00;;
5622;SDS011;2833;50.432;10.706;2023-11-21T06:23:37;10.83;;;7.30;;
5622;SDS011;2833;50.432;10.706;2023-11-21T06:26:02;12.73;;;6.60;;
5622;SDS011;2833;50.432;10.706;2023-11-21T06:28:29;7.47;;;4.67;;
5622;SDS011;2833;50.432;10.706;2023-11-21T06:30:54;6.53;;;4.40;;
5622;SDS011;2833;50.432;10.706;2023-11-21T06:33:19;22.87;;;12.83;;
5622;SDS011;2833;50.432;10.706;2023-11-21T06:35:46;33.87;;;16.20;;
5622;SDS011;2833;50.432;10.706;2023-11-21T06:38:12;22.30;;;12.90;;
5622;SDS011;2833;50.432;10.706;2023-11-21T06:40:37;12.33;;;8.33;;
5622;SDS011;2833;50.432;10.706;2023-11-21T06:43:03;10.10;;;6.93;;
5622;SDS011;2833;50.432;10.706;2023-11-21T06:45:29;11.30;;;7.27;;
5622;SDS011;2833;50.432;10.706;2023-11-21T06:47:55;13.03;;;6.33;;
5622;SDS011;2833;50.432;10.706;2023-11-21T06:50:20;13.17;;;5.50;;
5622;SDS011;2833;50.432;10.706;2023-11-21T06:52:46;14.00;;;6.60;;
5622;SDS011;2833;50.432;10.706;2023-11-21T06:55:11;8.87;;;4.80;;
5622;SDS011;2833;50.432;10.706;2023-11-21T06:57:36;12.83;;;5.20;;
5622;SDS011;2833;50.432;10.706;2023-11-21T07:00:02;6.03;;;4.47;;
5622;SDS011;2833;50.432;10.706;2023-11-21T07:02:27;6.97;;;4.70;;
5622;SDS011;2833;50.432;10.706;2023-11-21T07:04:53;7.90;;;4.90;;
5622;SDS011;2833;50.432;10.706;2023-11-21T07:07:19;9.63;;;5.40;;
5622;SDS011;2833;50.432;10.706;2023-11-21T07:09:44;10.90;;;6.10;;
5622;SDS011;2833;50.432;10.706;2023-11-21T07:12:09;10.80;;;6.70;;
5622;SDS011;2833;50.432;10.706;2023-11-21T07:14:36;11.37;;;7.00;;
5622;SDS011;2833;50.432;10.706;2023-11-21T07:17:02;7.30;;;5.13;;
5622;SDS011;2833;50.432;10.706;2023-11-21T07:19:27;7.90;;;4.50;;
5622;SDS011;2833;50.432;10.706;2023-11-21T07:21:52;8.60;;;5.00;;
5622;SDS011;2833;50.432;10.706;2023-11-21T07:24:17;6.30;;;4.83;;
5622;SDS011;2833;50.432;10.706;2023-11-21T07:26:43;8.00;;;4.63;;
5622;SDS011;2833;50.432;10.706;2023-11-21T07:29:08;5.87;;;4.10;;
5622;SDS011;2833;50.432;10.706;2023-11-21T07:31:33;6.70;;;4.73;;
5622;SDS011;2833;50.432;10.706;2023-11-21T07:33:59;7.23;;;4.50;;
5622;SDS011;2833;50.432;10.706;2023-11-21T07:36:24;6.67;;;3.97;;
5622;SDS011;2833;50.432;10.706;2023-11-21T07:38:50;5.27;;;4.07;;
5622;SDS011;2833;50.432;10.706;2023-11-21T07:41:15;4.20;;;3.40;;
5622;SDS011;2833;50.432;10.706;2023-11-21T07:43:42;4.43;;;3.77;;
5622;SDS011;2833;50.432;10.706;2023-11-21T07:46:07;6.77;;;4.00;;
5622;SDS011;2833;50.432;10.706;2023-11-21T07:48:33;4.97;;;3.90;;
5622;SDS011;2833;50.432;10.706;2023-11-21T07:51:00;4.97;;;3.70;;
5622;SDS011;2833;50.432;10.706;2023-11-21T07:53:25;5.33;;;4.13;;
5622;SDS011;2833;50.432;10.706;2023-11-21T07:55:53;4.40;;;3.70;;
5622;SDS011;2833;50.432;10.706;2023-11-21T07:58:18;4.13;;;3.40;;
5622;SDS011;2833;50.432;10.706;2023-11-21T08:00:44;3.20;;;2.90;;
5622;SDS011;2833;50.432;10.706;2023-11-21T08:03:09;2.60;;;2.40;;
5622;SDS011;2833;50.432;10.706;2023-11-21T08:05:34;3.53;;;3.23;;
5622;SDS011;2833;50.432;10.706;2023-11-21T08:08:00;2.53;;;2.33;;
5622;SDS011;2833;50.432;10.706;2023-11-21T08:10:25;7.57;;;3.53;;
5622;SDS011;2833;50.432;10.706;2023-11-21T08:12:51;9.20;;;6.13;;
5622;SDS011;2833;50.432;10.706;2023-11-21T08:15:16;15.93;;;8.40;;
5622;SDS011;2833;50.432;10.706;2023-11-21T08:17:41;16.40;;;10.30;;
5622;SDS011;2833;50.432;10.706;2023-11-21T08:20:06;3.00;;;2.70;;
5622;SDS011;2833;50.432;10.706;2023-11-21T08:22:33;3.03;;;2.40;;
5622;SDS011;2833;50.432;10.706;2023-11-21T08:24:59;4.70;;;3.90;;
5622;SDS011;2833;50.432;10.706;2023-11-21T08:27:24;4.37;;;3.30;;
5622;SDS011;2833;50.432;10.706;2023-11-21T08:29:49;3.73;;;2.77;;
5622;SDS011;2833;50.432;10.706;2023-11-21T08:32:15;2.50;;;2.30;;
5622;SDS011;2833;50.432;10.706;2023-11-21T08:34:40;4.00;;;2.93;;
5622;SDS011;2833;50.432;10.706;2023-11-21T08:37:08;2.97;;;2.50;;
5622;SDS011;2833;50.432;10.706;2023-11-21T08:39:33;2.47;;;2.27;;
5622;SDS011;2833;50.432;10.706;2023-11-21T08:41:58;3.40;;;2.97;;
5622;SDS011;2833;50.432;10.706;2023-11-21T08:44:23;2.87;;;2.40;;
5622;SDS011;2833;50.432;10.706;2023-11-21T08:46:49;3.00;;;2.70;;
5622;SDS011;2833;50.432;10.706;2023-11-21T08:49:15;4.13;;;3.77;;
5622;SDS011;2833;50.432;10.706;2023-11-21T08:51:40;4.83;;;3.77;;
5622;SDS011;2833;50.432;10.706;2023-11-21T08:54:06;3.40;;;3.10;;
5622;SDS011;2833;50.432;10.706;2023-11-21T08:56:33;11.10;;;6.63;;
5622;SDS011;2833;50.432;10.706;2023-11-21T08:58:58;28.93;;;17.77;;
5622;SDS011;2833;50.432;10.706;2023-11-21T09:01:27;5.43;;;4.67;;
5622;SDS011;2833;50.432;10.706;2023-11-21T09:03:52;13.20;;;8.67;;
5622;SDS011;2833;50.432;10.706;2023-11-21T09:06:17;10.70;;;6.60;;
5622;SDS011;2833;50.432;10.706;2023-11-21T09:08:42;6.90;;;5.43;;
5622;SDS011;2833;50.432;10.706;2023-11-21T09:11:08;11.83;;;6.83;;
5622;SDS011;2833;50.432;10.706;2023-11-21T09:13:33;13.43;;;8.83;;
5622;SDS011;2833;50.432;10.706;2023-11-21T09:15:59;11.20;;;6.47;;
5622;SDS011;2833;50.432;10.706;2023-11-21T09:18:24;6.47;;;4.50;;
5622;SDS011;2833;50.432;10.706;2023-11-21T09:20:50;12.30;;;7.87;;
5622;SDS011;2833;50.432;10.706;2023-11-21T09:23:15;8.10;;;5.73;;
5622;SDS011;2833;50.432;10.706;2023-11-21T09:25:40;7.90;;;5.60;;
5622;SDS011;2833;50.432;10.706;2023-11-21T09:28:06;24.43;;;16.10;;
5622;SDS011;2833;50.432;10.706;2023-11-21T09:30:34;69.07;;;38.87;;
5622;SDS011;2833;50.432;10.706;2023-11-21T09:33:00;21.57;;;13.90;;
5622;SDS011;2833;50.432;10.706;2023-11-21T09:35:25;19.33;;;13.20;;
5622;SDS011;2833;50.432;10.706;2023-11-21T09:37:50;16.47;;;10.10;;
5622;SDS011;2833;50.432;10.706;2023-11-21T09:40:17;8.83;;;6.03;;
5622;SDS011;2833;50.432;10.706;2023-11-21T09:42:56;13.30;;;9.60;;
5622;SDS011;2833;50.432;10.706;2023-11-21T09:45:25;9.67;;;6.73;;
5622;SDS011;2833;50.432;10.706;2023-11-21T09:47:52;7.00;;;5.00;;
5622;SDS011;2833;50.432;10.706;2023-11-21T09:50:17;8.33;;;5.20;;
5622;SDS011;2833;50.432;10.706;2023-11-21T09:55:26;10.03;;;6.80;;
5622;SDS011;2833;50.432;10.706;2023-11-21T09:57:52;12.23;;;8.87;;
5622;SDS011;2833;50.432;10.706;2023-11-21T10:00:18;9.33;;;6.43;;
5622;SDS011;2833;50.432;10.706;2023-11-21T10:02:45;8.97;;;6.60;;
5622;SDS011;2833;50.432;10.706;2023-11-21T10:05:11;11.60;;;7.83;;
5622;SDS011;2833;50.432;10.706;2023-11-21T10:07:37;13.63;;;7.50;;
5622;SDS011;2833;50.432;10.706;2023-11-21T10:10:04;24.23;;;12.80;;
5622;SDS011;2833;50.432;10.706;2023-11-21T10:12:29;22.17;;;14.00;;
5622;SDS011;2833;50.432;10.706;2023-11-21T10:14:56;13.57;;;9.87;;
5622;SDS011;2833;50.432;10.706;2023-11-21T10:17:23;15.33;;;10.20;;
5622;SDS011;2833;50.432;10.706;2023-11-21T10:19:49;12.00;;;7.40;;
5622;SDS011;2833;50.432;10.706;2023-11-21T10:22:15;8.80;;;6.13;;
5622;SDS011;2833;50.432;10.706;2023-11-21T10:24:41;7.53;;;6.10;;
5622;SDS011;2833;50.432;10.706;2023-11-21T10:27:08;10.00;;;4.83;;
5622;SDS011;2833;50.432;10.706;2023-11-21T10:29:33;10.63;;;5.30;;
5622;SDS011;2833;50.432;10.706;2023-11-21T10:32:01;9.33;;;6.00;;
5622;SDS011;2833;50.432;10.706;2023-11-21T10:34:26;9.93;;;6.03;;
5622;SDS011;2833;50.432;10.706;2023-11-21T10:36:52;7.60;;;6.07;;
5622;SDS011;2833;50.432;10.706;2023-11-21T10:39:19;9.67;;;7.00;;
5622;SDS011;2833;50.432;10.706;2023-11-21T10:41:45;8.33;;;6.70;;
5622;SDS011;2833;50.432;10.706;2023-11-21T10:44:14;16.00;;;6.03;;
5622;SDS011;2833;50.432;10.706;2023-11-21T10:46:45;9.50;;;6.20;;
5622;SDS011;2833;50.432;10.706;2023-11-21T10:49:15;11.00;;;5.73;;
5622;SDS011;2833;50.432;10.706;2023-11-21T10:51:43;17.80;;;7.50;;
5622;SDS011;2833;50.432;10.706;2023-11-21T10:54:08;17.10;;;11.73;;
5622;SDS011;2833;50.432;10.706;2023-11-21T10:56:33;10.83;;;6.90;;
5622;SDS011;2833;50.432;10.706;2023-11-21T10:59:05;9.47;;;5.70;;
5622;SDS011;2833;50.432;10.706;2023-11-21T11:01:31;14.33;;;5.17;;
5622;SDS011;2833;50.432;10.706;2023-11-21T11:03:57;8.77;;;5.53;;
5622;SDS011;2833;50.432;10.706;2023-11-21T11:06:22;9.17;;;6.20;;
5622;SDS011;2833;50.432;10.706;2023-11-21T11:08:51;8.00;;;5.43;;
5622;SDS011;2833;50.432;10.706;2023-11-21T11:11:16;12.37;;;5.87;;
5622;SDS011;2833;50.432;10.706;2023-11-21T11:13:43;7.90;;;5.50;;
5622;SDS011;2833;50.432;10.706;2023-11-21T11:16:09;10.40;;;6.20;;
5622;SDS011;2833;50.432;10.706;2023-11-21T11:18:35;10.83;;;6.03;;
5622;SDS011;2833;50.432;10.706;2023-11-21T11:21:12;7.90;;;5.57;;
5622;SDS011;2833;50.432;10.706;2023-11-21T11:26:12;9.73;;;6.00;;
5622;SDS011;2833;50.432;10.706;2023-11-21T11:28:55;6.80;;;4.97;;
5622;SDS011;2833;50.432;10.706;2023-11-21T11:38:58;9.83;;;6.97;;
5622;SDS011;2833;50.432;10.706;2023-11-21T11:41:24;12.00;;;8.23;;
5622;SDS011;2833;50.432;10.706;2023-11-21T11:43:50;18.80;;;11.00;;
5622;SDS011;2833;50.432;10.706;2023-11-21T11:46:15;24.37;;;11.87;;
5622;SDS011;2833;50.432;10.706;2023-11-21T11:48:40;20.70;;;9.00;;
5622;SDS011;2833;50.432;10.706;2023-11-21T11:51:15;17.83;;;9.10;;
5622;SDS011;2833;50.432;10.706;2023-11-21T11:53:43;17.10;;;7.93;;
5622;SDS011;2833;50.432;10.706;2023-11-21T11:58:54;38.20;;;25.93;;
5622;SDS011;2833;50.432;10.706;2023-11-21T12:01:20;18.17;;;9.80;;
5622;SDS011;2833;50.432;10.706;2023-11-21T12:04:13;11.53;;;6.23;;
5622;SDS011;2833;50.432;10.706;2023-11-21T12:06:33;14.17;;;7.20;;
5622;SDS011;2833;50.432;10.706;2023-11-21T12:09:00;12.87;;;5.23;;
5622;SDS011;2833;50.432;10.706;2023-11-21T12:11:30;10.80;;;6.10;;
5622;SDS011;2833;50.432;10.706;2023-11-21T12:13:55;15.20;;;8.70;;
5622;SDS011;2833;50.432;10.706;2023-11-21T12:16:20;12.63;;;7.40;;
5622;SDS011;2833;50.432;10.706;2023-11-21T12:18:48;37.90;;;15.90;;
5622;SDS011;2833;50.432;10.706;2023-11-21T12:21:13;47.10;;;19.87;;
5622;SDS011;2833;50.432;10.706;2023-11-21T12:23:39;22.90;;;9.77;;
5622;SDS011;2833;50.432;10.706;2023-11-21T12:26:05;38.47;;;21.27;;
5622;SDS011;2833;50.432;10.706;2023-11-21T12:28:31;31.00;;;13.97;;
5622;SDS011;2833;50.432;10.706;2023-11-21T12:30:56;21.87;;;9.43;;
5622;SDS011;2833;50.432;10.706;2023-11-21T12:33:22;17.00;;;7.53;;
5622;SDS011;2833;50.432;10.706;2023-11-21T12:35:47;12.50;;;5.40;;
5622;SDS011;2833;50.432;10.706;2023-11-21T12:38:13;11.10;;;5.30;;
5622;SDS011;2833;50.432;10.706;2023-11-21T12:40:38;12.80;;;6.30;;
5622;SDS011;2833;50.432;10.706;2023-11-21T12:43:04;19.53;;;7.50;;
5622;SDS011;2833;50.432;10.706;2023-11-21T12:45:32;22.40;;;8.90;;
5622;SDS011;2833;50.432;10.706;2023-11-21T12:48:00;15.30;;;7.33;;
5622;SDS011;2833;50.432;10.706;2023-11-21T12:50:27;11.00;;;7.07;;
5622;SDS011;2833;50.432;10.706;2023-11-21T12:53:03;15.00;;;8.70;;
5622;SDS011;2833;50.432;10.706;2023-11-21T12:55:30;22.30;;;10.77;;
5622;SDS011;2833;50.432;10.706;2023-11-21T12:57:56;30.90;;;14.20;;
5622;SDS011;2833;50.432;10.706;2023-11-21T13:00:29;19.57;;;10.57;;
5622;SDS011;2833;50.432;10.706;2023-11-21T13:02:57;16.33;;;7.40;;
5622;SDS011;2833;50.432;10.706;2023-11-21T13:05:27;30.60;;;15.87;;
5622;SDS011;2833;50.432;10.706;2023-11-21T13:07:53;11.70;;;6.20;;
5622;SDS011;2833;50.432;10.706;2023-11-21T13:10:20;11.87;;;6.33;;
5622;SDS011;2833;50.432;10.706;2023-11-21T13:12:52;18.40;;;8.47;;
5622;SDS011;2833;50.432;10.706;2023-11-21T13:15:17;12.30;;;5.83;;
5622;SDS011;2833;50.432;10.706;2023-11-21T13:17:43;18.40;;;10.53;;
5622;SDS011;2833;50.432;10.706;2023-11-21T13:20:10;10.50;;;6.37;;
5622;SDS011;2833;50.432;10.706;2023-11-21T13:22:44;12.40;;;5.67;;
5622;SDS011;2833;50.432;10.706;2023-11-21T13:25:09;18.57;;;8.40;;
5622;SDS011;2833;50.432;10.706;2023-11-21T13:27:34;21.80;;;11.70;;
5622;SDS011;2833;50.432;10.706;2023-11-21T13:30:02;13.37;;;7.07;;
5622;SDS011;2833;50.432;10.706;2023-11-21T13:32:28;16.03;;;10.23;;
5622;SDS011;2833;50.432;10.706;2023-11-21T13:34:54;11.30;;;5.70;;
5622;SDS011;2833;50.432;10.706;2023-11-21T13:37:20;14.80;;;7.90;;
5622;SDS011;2833;50.432;10.706;2023-11-21T13:39:45;9.60;;;4.40;;
5622;SDS011;2833;50.432;10.706;2023-11-21T13:42:14;10.57;;;7.17;;
5622;SDS011;2833;50.432;10.706;2023-11-21T13:44:41;15.93;;;8.47;;
5622;SDS011;2833;50.432;10.706;2023-11-21T13:47:11;14.67;;;6.90;;
5622;SDS011;2833;50.432;10.706;2023-11-21T13:49:36;10.73;;;5.83;;
5622;SDS011;2833;50.432;10.706;2023-11-21T13:52:05;12.40;;;6.97;;
5622;SDS011;2833;50.432;10.706;2023-11-21T13:54:32;19.93;;;8.07;;
5622;SDS011;2833;50.432;10.706;2023-11-21T13:56:57;15.27;;;8.13;;
5622;SDS011;2833;50.432;10.706;2023-11-21T13:59:24;17.23;;;10.13;;
5622;SDS011;2833;50.432;10.706;2023-11-21T14:01:53;11.20;;;6.70;;
5622;SDS011;2833;50.432;10.706;2023-11-21T14:04:20;11.47;;;6.20;;
5622;SDS011;2833;50.432;10.706;2023-11-21T14:06:59;9.77;;;5.60;;
5622;SDS011;2833;50.432;10.706;2023-11-21T14:09:35;9.67;;;6.40;;
5622;SDS011;2833;50.432;10.706;2023-11-21T14:12:08;12.93;;;6.53;;
5622;SDS011;2833;50.432;10.706;2023-11-21T14:14:35;10.33;;;8.00;;
5622;SDS011;2833;50.432;10.706;2023-11-21T14:17:00;17.53;;;11.30;;
5622;SDS011;2833;50.432;10.706;2023-11-21T14:19:27;18.53;;;11.80;;
5622;SDS011;2833;50.432;10.706;2023-11-21T14:21:56;20.03;;;12.80;;
5622;SDS011;2833;50.432;10.706;2023-11-21T14:24:21;12.83;;;7.17;;
5622;SDS011;2833;50.432;10.706;2023-11-21T14:26:48;12.27;;;7.40;;
5622;SDS011;2833;50.432;10.706;2023-11-21T14:29:14;9.90;;;6.50;;
5622;SDS011;2833;50.432;10.706;2023-11-21T14:31:42;13.93;;;9.20;;
5622;SDS011;2833;50.432;10.706;2023-11-21T14:34:08;14.10;;;7.80;;
5622;SDS011;2833;50.432;10.706;2023-11-21T14:36:34;42.93;;;20.80;;
5622;SDS011;2833;50.432;10.706;2023-11-21T14:38:59;38.83;;;20.27;;
5622;SDS011;2833;50.432;10.706;2023-11-21T14:41:24;74.83;;;35.50;;
5622;SDS011;2833;50.432;10.706;2023-11-21T14:43:50;72.37;;;31.83;;
5622;SDS011;2833;50.432;10.706;2023-11-21T14:46:15;36.27;;;16.57;;
5622;SDS011;2833;50.432;10.706;2023-11-21T14:48:44;49.73;;;25.20;;
5622;SDS011;2833;50.432;10.706;2023-11-21T14:51:12;11.40;;;7.83;;
5622;SDS011;2833;50.432;10.706;2023-11-21T14:53:58;14.77;;;8.80;;
5622;SDS011;2833;50.432;10.706;2023-11-21T14:56:31;35.27;;;17.70;;
5622;SDS011;2833;50.432;10.706;2023-11-21T14:58:59;27.40;;;12.47;;
5622;SDS011;2833;50.432;10.706;2023-11-21T15:01:31;25.43;;;12.10;;
5622;SDS011;2833;50.432;10.706;2023-11-21T15:04:15;29.37;;;12.97;;